createdAt,value
2019-05-20T00:01:04.096Z,100551.91
2019-05-20T00:03:34.331Z,100546.73
2019-05-20T00:06:04.165Z,100547.17
2019-05-20T00:08:34.048Z,100539.98
2019-05-20T00:11:04.353Z,100536.08
2019-05-20T00:13:34.286Z,100537.11
2019-05-20T00:16:04.129Z,100528.91
2019-05-20T00:18:34.178Z,100528.45
2019-05-20T00:21:04.309Z,100526.66
2019-05-20T00:23:34.232Z,100520.34
2019-05-20T00:26:04.373Z,100523.06
2019-05-20T00:28:34.232Z,100520.72
2019-05-20T00:31:04.381Z,100523.38
2019-05-20T00:33:34.290Z,100522.90
2019-05-20T00:36:04.181Z,100515.98
2019-05-20T00:38:34.188Z,100526.52
2019-05-20T00:41:04.380Z,100527.34
2019-05-20T00:43:34.351Z,100524.55
2019-05-20T00:46:04.289Z,100519.77
2019-05-20T00:48:34.350Z,100526.48
2019-05-20T00:51:04.246Z,100527.36
2019-05-20T00:53:34.211Z,100525.91
2019-05-20T00:56:04.541Z,100526.05
2019-05-20T00:58:34.450Z,100522.90
2019-05-20T01:01:04.488Z,100523.77
2019-05-20T01:03:34.879Z,100520.23
2019-05-20T01:06:04.426Z,100523.18
2019-05-20T01:08:34.490Z,100526.22
2019-05-20T01:11:04.401Z,100524.14
2019-05-20T01:13:34.412Z,100520.38
2019-05-20T01:16:04.371Z,100521.31
2019-05-20T01:18:34.583Z,100519.25
2019-05-20T01:21:04.433Z,100523.70
2019-05-20T01:23:34.473Z,100522.95
2019-05-20T01:26:04.579Z,100522.71
2019-05-20T01:28:34.431Z,100521.28
2019-05-20T01:31:04.438Z,100520.53
2019-05-20T01:33:34.507Z,100525.64
2019-05-20T01:36:07.043Z,100519.53
2019-05-20T01:38:39.727Z,100530.41
2019-05-20T01:41:09.266Z,100522.72
2019-05-20T01:43:38.687Z,100533.96
2019-05-20T01:46:08.134Z,100532.75
2019-05-20T01:48:37.748Z,100530.28
2019-05-20T01:51:07.246Z,100536.13
2019-05-20T01:53:36.666Z,100535.17
2019-05-20T01:56:06.153Z,100535.66
2019-05-20T01:58:35.602Z,100539.67
2019-05-20T02:01:05.038Z,100543.22
2019-05-20T02:03:34.744Z,100553.20
2019-05-20T02:06:04.525Z,100552.48
2019-05-20T02:08:34.595Z,100547.98
2019-05-20T02:11:04.591Z,100549.67
2019-05-20T02:13:56.225Z,100556.38
2019-05-20T02:16:25.982Z,100564.08
2019-05-20T02:18:55.456Z,100559.58
2019-05-20T02:21:24.875Z,100558.84
2019-05-20T02:23:54.464Z,100567.48
2019-05-20T02:26:23.987Z,100556.25
2019-05-20T02:28:53.401Z,100560.17
2019-05-20T02:31:22.960Z,100554.55
2019-05-20T02:33:53.131Z,100550.55
2019-05-20T02:36:22.638Z,100543.10
2019-05-20T02:38:52.187Z,100545.30
2019-05-20T02:41:21.916Z,100548.94
2019-05-20T02:43:51.797Z,100545.77
2019-05-20T02:46:21.579Z,100544.80
2019-05-20T02:48:51.047Z,100538.69
2019-05-20T02:51:31.352Z,100538.09
2019-05-20T02:54:02.828Z,100536.23
2019-05-20T02:56:32.610Z,100536.02
2019-05-20T02:59:02.505Z,100537.70
2019-05-20T03:01:32.136Z,100530.27
2019-05-20T03:04:11.516Z,100523.36
2019-05-20T03:06:34.548Z,100524.70
2019-05-20T03:09:06.627Z,100533.22
2019-05-20T03:11:37.324Z,100517.36
2019-05-20T03:14:08.512Z,100531.87
2019-05-20T03:16:38.033Z,100530.67
2019-05-20T03:19:07.467Z,100522.61
2019-05-20T03:21:36.911Z,100533.80
2019-05-20T03:24:06.369Z,100536.76
2019-05-20T03:26:35.909Z,100533.24
2019-05-20T03:29:05.329Z,100533.98
2019-05-20T03:31:34.917Z,100538.61
2019-05-20T03:34:04.817Z,100533.98
2019-05-20T03:36:34.765Z,100535.45
2019-05-20T03:39:06.557Z,100537.61
2019-05-20T03:41:37.797Z,100541.63
2019-05-20T03:44:07.228Z,100545.53
2019-05-20T03:46:36.928Z,100539.33
2019-05-20T03:49:06.516Z,100543.23
2019-05-20T03:51:35.946Z,100533.72
2019-05-20T03:54:05.570Z,100538.61
2019-05-20T03:56:35.077Z,100531.65
2019-05-20T03:59:04.771Z,100531.89
2019-05-20T04:01:35.000Z,100539.45
2019-05-20T04:04:04.704Z,100543.83
2019-05-20T04:06:34.778Z,100529.69
2019-05-20T04:09:06.243Z,100530.90
2019-05-20T04:11:36.048Z,100532.02
2019-05-20T04:14:05.613Z,100528.61
2019-05-20T04:16:36.432Z,100534.80
2019-05-20T04:19:06.037Z,100535.66
2019-05-20T04:21:35.467Z,100539.95
2019-05-20T04:24:05.707Z,100541.29
2019-05-20T04:26:35.570Z,100533.47
2019-05-20T04:29:04.973Z,100532.37
2019-05-20T04:31:34.846Z,100531.89
2019-05-20T04:34:04.975Z,100523.70
2019-05-20T04:36:34.890Z,100517.84
2019-05-20T04:39:06.204Z,100522.20
2019-05-20T04:41:36.975Z,100523.06
2019-05-20T04:44:06.802Z,100520.98
2019-05-20T04:46:36.480Z,100522.68
2019-05-20T04:49:05.938Z,100524.87
2019-05-20T04:51:35.658Z,100524.41
2019-05-20T04:54:05.256Z,100524.66
2019-05-20T04:56:34.806Z,100526.84
2019-05-20T04:59:06.844Z,100523.55
2019-05-20T05:01:36.407Z,100516.23
2019-05-20T05:04:05.839Z,100517.58
2019-05-20T05:06:35.333Z,100508.65
2019-05-20T05:09:06.580Z,100510.97
2019-05-20T05:11:36.083Z,100517.28
2019-05-20T05:14:05.691Z,100525.13
2019-05-20T05:16:35.159Z,100527.20
2019-05-20T05:19:04.859Z,100523.02
2019-05-20T05:21:34.950Z,100525.55
2019-05-20T05:24:04.941Z,100525.64
2019-05-20T05:26:34.833Z,100520.55
2019-05-20T05:29:05.033Z,100527.84
2019-05-20T05:31:35.939Z,100540.05
2019-05-20T05:34:05.433Z,100549.80
2019-05-20T05:36:34.899Z,100552.47
2019-05-20T05:39:06.597Z,100549.53
2019-05-20T05:41:36.114Z,100550.78
2019-05-20T05:44:05.635Z,100555.17
2019-05-20T05:46:35.221Z,100552.33
2019-05-20T05:49:04.866Z,100554.29
2019-05-20T05:51:34.867Z,100558.81
2019-05-20T05:54:05.476Z,100558.93
2019-05-20T05:56:34.927Z,100556.24
2019-05-20T05:59:04.842Z,100557.95
2019-05-20T06:01:35.038Z,100549.41
2019-05-20T06:04:05.088Z,100552.39
2019-05-20T06:06:34.868Z,100551.58
2019-05-20T06:09:06.460Z,100550.24
2019-05-20T06:11:36.031Z,100551.55
2019-05-20T06:14:05.569Z,100552.17
2019-05-20T06:16:36.913Z,100558.38
2019-05-20T06:19:06.310Z,100557.62
2019-05-20T06:21:35.961Z,100557.38
2019-05-20T06:24:05.692Z,100563.38
2019-05-20T06:26:35.144Z,100569.30
2019-05-20T06:29:04.921Z,100569.10
2019-05-20T06:31:35.182Z,100569.94
2019-05-20T06:34:04.979Z,100577.38
2019-05-20T06:36:39.521Z,100570.75
2019-05-20T06:39:13.148Z,100571.38
2019-05-20T06:41:43.364Z,100576.81
2019-05-20T06:44:12.840Z,100572.19
2019-05-20T06:46:43.292Z,100569.30
2019-05-20T06:49:12.742Z,100568.03
2019-05-20T06:51:43.890Z,100564.76
2019-05-20T06:54:14.451Z,100564.76
2019-05-20T06:56:44.719Z,100563.00
2019-05-20T06:59:14.165Z,100558.89
2019-05-20T07:01:43.834Z,100565.52
2019-05-20T07:04:13.294Z,100569.93
2019-05-20T07:06:47.293Z,100559.90
2019-05-20T07:09:14.027Z,100551.52
2019-05-20T07:11:52.338Z,100551.52
2019-05-20T07:14:14.649Z,100558.57
2019-05-20T07:16:44.468Z,100559.39
2019-05-20T07:19:13.874Z,100558.14
2019-05-20T07:21:43.310Z,100566.21
2019-05-20T07:24:12.768Z,100570.84
2019-05-20T07:26:43.932Z,100572.20
2019-05-20T07:29:14.451Z,100569.08
2019-05-20T07:31:44.002Z,100575.27
2019-05-20T07:34:13.449Z,100575.90
2019-05-20T07:36:42.893Z,100566.61
2019-05-20T07:39:12.440Z,100565.47
2019-05-20T07:41:42.105Z,100565.62
2019-05-20T07:44:11.536Z,100570.34
2019-05-20T07:46:41.305Z,100575.39
2019-05-20T07:49:12.155Z,100579.31
2019-05-20T07:51:46.193Z,100574.28
2019-05-20T07:54:18.324Z,100579.26
2019-05-20T07:56:49.962Z,100577.20
2019-05-20T07:59:22.083Z,100585.25
2019-05-20T08:01:52.035Z,100586.66
2019-05-20T08:04:21.859Z,100585.61
2019-05-20T08:06:51.316Z,100583.98
2019-05-20T08:09:20.867Z,100590.31
2019-05-20T08:11:50.349Z,100583.52
2019-05-20T08:14:19.928Z,100593.63
2019-05-20T08:16:49.861Z,100590.55
2019-05-20T08:19:19.350Z,100584.61
2019-05-20T08:21:48.877Z,100595.95
2019-05-20T08:24:18.422Z,100595.95
2019-05-20T08:26:47.903Z,100592.07
2019-05-20T08:29:17.309Z,100594.74
2019-05-20T08:31:46.982Z,100596.77
2019-05-20T08:34:16.426Z,100591.98
2019-05-20T08:36:45.908Z,100585.43
2019-05-20T08:39:15.443Z,100584.53
2019-05-20T08:41:44.935Z,100587.92
2019-05-20T08:44:14.385Z,100596.30
2019-05-20T08:46:44.112Z,100596.79
2019-05-20T08:49:13.636Z,100585.06
2019-05-20T08:51:43.124Z,100589.66
2019-05-20T08:54:12.773Z,100592.84
2019-05-20T08:56:42.233Z,100587.91
2019-05-20T08:59:11.679Z,100582.39
2019-05-20T09:01:41.174Z,100577.38
2019-05-20T09:04:10.657Z,100585.17
2019-05-20T09:06:40.462Z,100585.28
2019-05-20T09:09:12.400Z,100581.21
2019-05-20T09:11:41.369Z,100579.02
2019-05-20T09:14:10.827Z,100576.55
2019-05-20T09:16:40.426Z,100578.42
2019-05-20T09:19:10.310Z,100583.67
2019-05-20T09:21:39.742Z,100585.13
2019-05-20T09:24:09.391Z,100591.62
2019-05-20T09:26:39.120Z,100595.54
2019-05-20T09:29:11.365Z,100590.25
2019-05-20T09:31:40.679Z,100588.44
2019-05-20T09:34:10.101Z,100585.69
2019-05-20T09:36:39.648Z,100578.06
2019-05-20T09:39:09.488Z,100578.61
2019-05-20T09:41:39.226Z,100586.59
2019-05-20T09:44:09.188Z,100581.82
2019-05-20T09:46:39.274Z,100581.82
2019-05-20T09:49:10.124Z,100586.69
2019-05-20T09:51:39.613Z,100593.85
2019-05-20T09:54:09.184Z,100594.35
2019-05-20T09:56:39.148Z,100598.19
2019-05-20T09:59:09.294Z,100599.86
2019-05-20T10:01:40.369Z,100594.84
2019-05-20T10:04:09.984Z,100602.44
2019-05-20T10:06:39.450Z,100592.98
2019-05-20T10:09:09.249Z,100586.37
2019-05-20T10:11:39.420Z,100580.11
2019-05-20T10:14:09.307Z,100579.27
2019-05-20T10:16:39.299Z,100583.16
2019-05-20T10:19:09.185Z,100582.14
2019-05-20T10:21:39.155Z,100574.96
2019-05-20T10:24:09.686Z,100582.42
2019-05-20T10:26:39.283Z,100580.72
2019-05-20T10:29:09.358Z,100583.95
2019-05-20T10:31:39.343Z,100575.72
2019-05-20T10:34:09.201Z,100575.72
2019-05-20T10:36:39.232Z,100581.69
2019-05-20T10:39:09.307Z,100587.67
2019-05-20T10:41:39.359Z,100589.39
2019-05-20T10:44:09.226Z,100590.80
2019-05-20T10:46:39.654Z,100600.45
2019-05-20T10:49:09.335Z,100594.61
2019-05-20T10:51:39.332Z,100599.17
2019-05-20T10:54:09.312Z,100595.35
2019-05-20T10:56:39.208Z,100596.84
2019-05-20T10:59:11.967Z,100587.75
2019-05-20T11:01:40.786Z,100595.71
2019-05-20T11:04:10.264Z,100595.66
2019-05-20T11:06:39.737Z,100601.44
2019-05-20T11:09:14.089Z,100594.47
2019-05-20T11:11:40.648Z,100597.22
2019-05-20T11:14:10.198Z,100597.36
2019-05-20T11:16:42.154Z,100601.81
2019-05-20T11:19:11.595Z,100598.60
2019-05-20T11:21:41.113Z,100591.65
2019-05-20T11:24:10.783Z,100591.81
2019-05-20T11:26:40.237Z,100584.01
2019-05-20T11:29:09.683Z,100579.77
2019-05-20T11:31:39.470Z,100579.22
2019-05-20T11:34:09.442Z,100577.13
2019-05-20T11:36:39.396Z,100570.20
2019-05-20T11:39:09.647Z,100579.55
2019-05-20T11:41:52.639Z,100577.67
2019-05-20T11:44:11.991Z,100573.92
2019-05-20T11:46:42.585Z,100585.80
2019-05-20T11:49:12.018Z,100581.20
2019-05-20T11:51:41.463Z,100585.77
2019-05-20T11:54:11.002Z,100592.20
2019-05-20T11:56:40.501Z,100588.21
2019-05-20T11:59:10.016Z,100595.34
2019-05-20T12:01:40.747Z,100598.61
2019-05-20T12:04:10.782Z,100591.98
2019-05-20T12:06:40.239Z,100586.73
2019-05-20T12:09:09.836Z,100585.52
2019-05-20T12:11:39.643Z,100593.16
2019-05-20T12:14:09.632Z,100592.08
2019-05-20T12:16:39.704Z,100591.71
2019-05-20T12:19:09.550Z,100597.20
2019-05-20T12:21:39.926Z,100598.23
2019-05-20T12:24:09.729Z,100597.21
2019-05-20T12:26:39.548Z,100591.09
2019-05-20T12:29:09.568Z,100595.36
2019-05-20T12:31:40.179Z,100594.16
2019-05-20T12:34:09.587Z,100590.55
2019-05-20T12:36:39.579Z,100596.31
2019-05-20T12:39:09.728Z,100593.66
2019-05-20T12:41:39.719Z,100585.89
2019-05-20T12:44:12.984Z,100592.83
2019-05-20T12:46:41.225Z,100582.77
2019-05-20T12:49:10.907Z,100580.09
2019-05-20T12:51:40.573Z,100579.61
2019-05-20T12:54:10.183Z,100576.82
2019-05-20T12:56:39.935Z,100578.02
2019-05-20T12:59:09.714Z,100573.58
2019-05-20T13:01:39.782Z,100573.09
2019-05-20T13:04:09.777Z,100568.54
2019-05-20T13:06:39.650Z,100571.92
2019-05-20T13:09:09.785Z,100561.39
2019-05-20T13:11:39.703Z,100554.11
2019-05-20T13:14:09.803Z,100554.51
2019-05-20T13:16:39.697Z,100554.17
2019-05-20T13:19:09.609Z,100551.45
2019-05-20T13:21:39.645Z,100551.63
2019-05-20T13:24:09.916Z,100548.55
2019-05-20T13:26:39.849Z,100550.44
2019-05-20T13:29:09.758Z,100553.97
2019-05-20T13:31:39.719Z,100544.28
2019-05-20T13:34:09.597Z,100544.11
2019-05-20T13:36:39.655Z,100539.53
2019-05-20T13:39:09.832Z,100532.77
2019-05-20T13:41:39.899Z,100531.41
2019-05-20T13:44:09.782Z,100525.80
2019-05-20T13:46:39.898Z,100521.58
2019-05-20T13:49:10.258Z,100517.04
2019-05-20T13:51:39.674Z,100514.66
2019-05-20T13:54:09.716Z,100510.41
2019-05-20T13:56:39.697Z,100503.45
2019-05-20T13:59:09.743Z,100503.45
2019-05-20T14:01:39.803Z,100503.30
2019-05-20T14:04:09.684Z,100496.69
2019-05-20T14:06:39.701Z,100494.95
2019-05-20T14:09:10.935Z,100495.94
2019-05-20T14:11:40.348Z,100498.97
2019-05-20T14:14:09.799Z,100491.51
2019-05-20T14:16:39.831Z,100491.83
2019-05-20T14:19:09.684Z,100495.27
2019-05-20T14:21:39.702Z,100493.23
2019-05-20T14:24:10.098Z,100485.95
2019-05-20T14:26:39.709Z,100483.91
2019-05-20T14:29:09.837Z,100475.77
2019-05-20T14:31:40.255Z,100462.45
2019-05-20T14:34:09.863Z,100461.02
2019-05-20T14:36:40.513Z,100460.63
2019-05-20T14:39:10.206Z,100455.26
2019-05-20T14:41:39.774Z,100455.77
2019-05-20T14:44:09.775Z,100452.14
2019-05-20T14:46:39.946Z,100449.16
2019-05-20T14:49:09.836Z,100460.96
2019-05-20T14:51:39.890Z,100447.35
2019-05-20T14:54:10.127Z,100447.61
2019-05-20T14:59:08.018Z,100447.55
2019-05-20T15:01:37.650Z,100455.52
2019-05-20T15:04:07.113Z,100459.02
2019-05-20T15:06:36.635Z,100462.45
2019-05-20T15:09:08.654Z,100461.95
2019-05-20T15:11:38.975Z,100468.83
2019-05-20T15:14:08.543Z,100469.52
2019-05-20T15:16:38.384Z,100474.78
2019-05-20T15:19:07.862Z,100471.95
2019-05-20T15:21:38.530Z,100471.33
2019-05-20T15:24:08.065Z,100472.48
2019-05-20T15:26:37.816Z,100468.34
2019-05-20T15:29:07.327Z,100474.53
2019-05-20T15:31:36.856Z,100469.61
2019-05-20T15:34:06.336Z,100465.61
2019-05-20T15:36:35.920Z,100468.73
2019-05-20T15:39:06.644Z,100468.73
2019-05-20T15:41:36.184Z,100461.73
2019-05-20T15:44:07.638Z,100463.73
2019-05-20T15:46:37.450Z,100460.83
2019-05-20T15:49:06.879Z,100463.27
2019-05-20T15:51:36.337Z,100461.22
2019-05-20T15:54:07.149Z,100454.25
2019-05-20T15:56:37.073Z,100454.25
2019-05-20T15:59:06.539Z,100457.68
2019-05-20T16:01:36.035Z,100457.83
2019-05-20T16:04:05.449Z,100445.48
2019-05-20T16:06:34.885Z,100449.64
2019-05-20T16:09:05.660Z,100440.88
2019-05-20T16:11:35.154Z,100443.93
2019-05-20T16:14:04.622Z,100444.23
2019-05-20T16:16:34.157Z,100452.46
2019-05-20T16:19:03.581Z,100458.17
2019-05-20T16:21:33.042Z,100461.20
2019-05-20T16:24:02.641Z,100452.56
2019-05-20T16:26:32.073Z,100455.43
2019-05-20T16:29:01.523Z,100449.03
2019-05-20T16:31:31.305Z,100446.42
2019-05-20T16:34:00.822Z,100434.16
2019-05-20T16:36:30.367Z,100435.53
2019-05-20T16:39:00.389Z,100435.48
2019-05-20T16:41:29.964Z,100440.46
2019-05-20T16:43:59.492Z,100442.52
2019-05-20T16:46:29.066Z,100438.69
2019-05-20T16:48:58.524Z,100441.08
2019-05-20T16:51:27.983Z,100446.70
2019-05-20T16:53:57.539Z,100435.89
2019-05-20T16:56:27.095Z,100433.73
2019-05-20T16:58:56.604Z,100437.27
2019-05-20T17:01:26.233Z,100439.83
2019-05-20T17:03:55.671Z,100439.83
2019-05-20T17:06:27.541Z,100439.72
2019-05-20T17:08:56.671Z,100440.98
2019-05-20T17:11:26.232Z,100445.34
2019-05-20T17:13:55.664Z,100455.00
2019-05-20T17:16:25.251Z,100453.50
2019-05-20T17:18:55.048Z,100450.41
2019-05-20T17:21:24.585Z,100452.14
2019-05-20T17:23:54.178Z,100460.77
2019-05-20T17:26:23.598Z,100458.94
2019-05-20T17:28:52.998Z,100468.38
2019-05-20T17:31:23.458Z,100467.11
2019-05-20T17:33:52.918Z,100462.83
2019-05-20T17:36:22.463Z,100461.12
2019-05-20T17:38:52.186Z,100465.53
2019-05-20T17:41:21.600Z,100469.66
2019-05-20T17:43:51.248Z,100468.30
2019-05-20T17:46:21.091Z,100471.36
2019-05-20T17:48:50.959Z,100459.95
2019-05-20T17:51:20.500Z,100460.31
2019-05-20T17:53:50.719Z,100458.11
2019-05-20T17:56:20.284Z,100450.98
2019-05-20T17:58:50.036Z,100455.21
2019-05-20T18:01:19.625Z,100459.72
2019-05-20T18:03:49.043Z,100458.01
2019-05-20T18:06:18.578Z,100456.47
2019-05-20T18:08:51.081Z,100460.89
2019-05-20T18:11:21.109Z,100469.09
2019-05-20T18:13:50.510Z,100458.06
2019-05-20T18:16:20.962Z,100464.19
2019-05-20T18:18:50.361Z,100463.05
2019-05-20T18:21:19.412Z,100459.98
2019-05-20T18:23:49.434Z,100462.70
2019-05-20T18:26:18.880Z,100468.17
2019-05-20T18:28:48.338Z,100467.99
2019-05-20T18:31:31.212Z,100472.24
2019-05-20T18:33:49.132Z,100469.53
2019-05-20T18:36:18.563Z,100478.03
2019-05-20T18:38:49.670Z,100483.27
2019-05-20T18:41:19.190Z,100495.98
2019-05-20T18:43:48.571Z,100494.63
2019-05-20T18:46:18.232Z,100497.87
2019-05-20T18:48:47.789Z,100501.09
2019-05-20T18:51:17.257Z,100499.05
2019-05-20T18:53:47.215Z,100506.67
2019-05-20T18:56:16.767Z,100514.61
2019-05-20T18:58:46.207Z,100514.61
2019-05-20T19:01:15.733Z,100506.13
2019-05-20T19:03:46.616Z,100499.53
2019-05-20T19:06:16.262Z,100499.36
2019-05-20T19:08:45.903Z,100495.80
2019-05-20T19:11:15.532Z,100501.22
2019-05-20T19:13:46.346Z,100494.11
2019-05-20T19:16:16.083Z,100497.33
2019-05-20T19:18:45.630Z,100488.84
2019-05-20T19:21:15.054Z,100494.59
2019-05-20T19:23:45.019Z,100494.22
2019-05-20T19:26:24.497Z,100499.81
2019-05-20T19:28:45.658Z,100497.93
2019-05-20T19:31:15.099Z,100497.95
2019-05-20T19:33:44.982Z,100495.58
2019-05-20T19:36:14.405Z,100491.14
2019-05-20T19:38:43.940Z,100492.02
2019-05-20T19:41:13.519Z,100493.61
2019-05-20T19:43:42.935Z,100484.98
2019-05-20T19:46:12.440Z,100490.03
2019-05-20T19:48:41.853Z,100484.13
2019-05-20T19:51:12.045Z,100484.79
2019-05-20T19:53:41.611Z,100481.59
2019-05-20T19:56:11.046Z,100474.98
2019-05-20T19:58:40.530Z,100476.50
2019-05-20T20:01:10.488Z,100474.95
2019-05-20T20:03:40.344Z,100484.28
2019-05-20T20:06:10.510Z,100483.59
2019-05-20T20:08:40.440Z,100478.02
2019-05-20T20:11:10.560Z,100491.05
2019-05-20T20:13:41.439Z,100484.27
2019-05-20T20:16:11.190Z,100483.22
2019-05-20T20:18:40.636Z,100498.44
2019-05-20T20:21:10.467Z,100501.47
2019-05-20T20:23:40.511Z,100504.52
2019-05-20T20:26:10.608Z,100505.18
2019-05-20T20:28:40.440Z,100500.81
2019-05-20T20:31:11.069Z,100486.89
2019-05-20T20:33:40.711Z,100488.61
2019-05-20T20:36:10.537Z,100488.61
2019-05-20T20:38:40.611Z,100488.61
2019-05-20T20:41:10.594Z,100485.90
2019-05-20T20:43:40.425Z,100470.98
2019-05-20T20:46:11.145Z,100470.30
2019-05-20T20:48:40.707Z,100476.38
2019-05-20T20:51:10.560Z,100476.73
2019-05-20T20:53:40.644Z,100467.42
2019-05-20T20:56:24.173Z,100472.66
2019-05-20T20:58:42.559Z,100477.05
2019-05-20T21:01:12.181Z,100484.47
2019-05-20T21:03:41.633Z,100490.39
2019-05-20T21:06:11.075Z,100493.95
2019-05-20T21:08:40.576Z,100496.83
2019-05-20T21:11:10.635Z,100495.30
2019-05-20T21:13:40.708Z,100500.53
2019-05-20T21:16:10.912Z,100494.97
2019-05-20T21:18:41.036Z,100500.74
2019-05-20T21:21:10.984Z,100498.67
2019-05-20T21:23:40.814Z,100496.91
2019-05-20T21:26:10.712Z,100501.66
2019-05-20T21:28:40.587Z,100503.52
2019-05-20T21:31:10.619Z,100496.41
2019-05-20T21:33:40.640Z,100505.99
2019-05-20T21:36:10.680Z,100496.69
2019-05-20T21:38:40.897Z,100493.16
2019-05-20T21:41:10.593Z,100500.61
2019-05-20T21:43:40.653Z,100487.27
2019-05-20T21:46:10.670Z,100487.94
2019-05-20T21:48:40.614Z,100488.80
2019-05-20T21:51:10.899Z,100488.08
2019-05-20T21:53:40.780Z,100477.98
2019-05-20T21:56:10.625Z,100483.70
2019-05-20T21:58:40.852Z,100474.13
2019-05-20T22:01:11.496Z,100475.98
2019-05-20T22:03:41.000Z,100470.37
2019-05-20T22:06:10.920Z,100469.88
2019-05-20T22:08:40.736Z,100468.81
2019-05-20T22:11:10.690Z,100459.84
2019-05-20T22:13:40.748Z,100456.94
2019-05-20T22:16:10.820Z,100449.81
2019-05-20T22:18:40.679Z,100457.14
2019-05-20T22:21:12.355Z,100449.45
2019-05-20T22:24:00.781Z,100453.87
2019-05-20T22:26:30.266Z,100444.73
2019-05-20T22:28:59.690Z,100436.09
2019-05-20T22:31:29.268Z,100430.73
2019-05-20T22:33:58.829Z,100431.34
2019-05-20T22:36:28.309Z,100428.28
2019-05-20T22:38:57.916Z,100425.58
2019-05-20T22:41:27.421Z,100431.48
2019-05-20T22:43:56.871Z,100433.69
2019-05-20T22:46:26.398Z,100432.98
2019-05-20T22:48:55.880Z,100432.75
2019-05-20T22:51:25.390Z,100431.11
2019-05-20T22:53:54.905Z,100434.47
2019-05-20T22:56:24.352Z,100432.98
2019-05-20T22:58:53.822Z,100431.15
2019-05-20T23:01:23.344Z,100426.11
2019-05-20T23:03:56.507Z,100425.91
2019-05-20T23:06:24.298Z,100424.80
2019-05-20T23:08:53.816Z,100432.18
2019-05-20T23:11:23.265Z,100433.44
2019-05-20T23:13:52.751Z,100425.99
2019-05-20T23:16:22.176Z,100430.79
2019-05-20T23:18:51.655Z,100435.41
2019-05-20T23:21:21.243Z,100435.41
2019-05-20T23:23:50.681Z,100430.78
2019-05-20T23:26:20.146Z,100426.73
2019-05-20T23:28:49.651Z,100419.48
2019-05-20T23:31:19.120Z,100420.63
2019-05-20T23:33:48.536Z,100414.82
2019-05-20T23:36:18.097Z,100418.22
2019-05-20T23:38:47.590Z,100417.92
2019-05-20T23:41:17.030Z,100417.61
2019-05-20T23:43:46.528Z,100419.13
2019-05-20T23:46:15.951Z,100410.36
2019-05-20T23:48:45.349Z,100424.14
2019-05-20T23:51:14.802Z,100415.27
2019-05-20T23:53:45.115Z,100412.57
2019-05-20T23:56:14.544Z,100413.42
2019-05-20T23:58:44.201Z,100424.08
